sensor_id;sensor_type;location;lat;lon;timestamp;P1;durP1;ratioP1;P2;durP2;ratioP2
74967;SDS011;63523;51.880;12.630;2023-02-27T00:01:19;3.17;;;0.40;;
74967;SDS011;63523;51.880;12.630;2023-02-27T00:03:45;2.70;;;0.20;;
74967;SDS011;63523;51.880;12.630;2023-02-27T00:06:10;3.45;;;0.55;;
74967;SDS011;63523;51.880;12.630;2023-02-27T00:08:36;2.10;;;0.40;;
74967;SDS011;63523;51.880;12.630;2023-02-27T00:11:02;2.90;;;0.20;;
74967;SDS011;63523;51.880;12.630;2023-02-27T00:13:27;2.65;;;0.20;;
74967;SDS011;63523;51.880;12.630;2023-02-27T00:15:53;2.37;;;0.20;;
74967;SDS011;63523;51.880;12.630;2023-02-27T00:18:20;2.30;;;0.30;;
74967;SDS011;63523;51.880;12.630;2023-02-27T00:20:46;2.15;;;0.20;;
74967;SDS011;63523;51.880;12.630;2023-02-27T00:23:12;3.72;;;0.25;;
74967;SDS011;63523;51.880;12.630;2023-02-27T00:25:40;2.53;;;0.20;;
74967;SDS011;63523;51.880;12.630;2023-02-27T00:28:05;2.75;;;0.30;;
74967;SDS011;63523;51.880;12.630;2023-02-27T00:30:31;3.05;;;0.20;;
74967;SDS011;63523;51.880;12.630;2023-02-27T00:32:57;3.83;;;0.20;;
74967;SDS011;63523;51.880;12.630;2023-02-27T00:35:23;3.05;;;0.20;;
74967;SDS011;63523;51.880;12.630;2023-02-27T00:37:48;3.53;;;0.30;;
74967;SDS011;63523;51.880;12.630;2023-02-27T00:40:14;3.45;;;0.40;;
74967;SDS011;63523;51.880;12.630;2023-02-27T00:42:40;3.50;;;0.20;;
74967;SDS011;63523;51.880;12.630;2023-02-27T00:45:06;3.63;;;0.50;;
74967;SDS011;63523;51.880;12.630;2023-02-27T00:47:32;2.58;;;0.40;;
74967;SDS011;63523;51.880;12.630;2023-02-27T00:49:58;3.53;;;0.13;;
74967;SDS011;63523;51.880;12.630;2023-02-27T00:52:25;2.17;;;0.10;;
74967;SDS011;63523;51.880;12.630;2023-02-27T00:54:50;3.30;;;0.20;;
74967;SDS011;63523;51.880;12.630;2023-02-27T00:57:16;2.97;;;0.20;;
74967;SDS011;63523;51.880;12.630;2023-02-27T00:59:42;2.88;;;0.30;;
74967;SDS011;63523;51.880;12.630;2023-02-27T01:02:08;3.17;;;0.20;;
74967;SDS011;63523;51.880;12.630;2023-02-27T01:04:34;2.28;;;0.20;;
74967;SDS011;63523;51.880;12.630;2023-02-27T01:06:59;2.45;;;0.20;;
74967;SDS011;63523;51.880;12.630;2023-02-27T01:09:25;1.90;;;0.10;;
74967;SDS011;63523;51.880;12.630;2023-02-27T01:11:51;1.80;;;0.20;;
74967;SDS011;63523;51.880;12.630;2023-02-27T01:14:16;1.60;;;0.10;;
74967;SDS011;63523;51.880;12.630;2023-02-27T01:16:42;3.83;;;0.20;;
74967;SDS011;63523;51.880;12.630;2023-02-27T01:19:07;2.30;;;0.10;;
74967;SDS011;63523;51.880;12.630;2023-02-27T01:21:33;2.00;;;0.10;;
74967;SDS011;63523;51.880;12.630;2023-02-27T01:23:59;2.53;;;0.10;;
74967;SDS011;63523;51.880;12.630;2023-02-27T01:26:25;1.77;;;0.10;;
74967;SDS011;63523;51.880;12.630;2023-02-27T01:28:50;1.77;;;0.13;;
74967;SDS011;63523;51.880;12.630;2023-02-27T01:31:16;2.17;;;0.10;;
74967;SDS011;63523;51.880;12.630;2023-02-27T01:33:42;1.97;;;0.10;;
74967;SDS011;63523;51.880;12.630;2023-02-27T01:36:07;1.85;;;0.10;;
74967;SDS011;63523;51.880;12.630;2023-02-27T01:38:33;2.30;;;0.20;;
74967;SDS011;63523;51.880;12.630;2023-02-27T01:40:59;2.38;;;0.10;;
74967;SDS011;63523;51.880;12.630;2023-02-27T01:43:25;2.53;;;0.20;;
74967;SDS011;63523;51.880;12.630;2023-02-27T01:45:51;3.00;;;0.22;;
74967;SDS011;63523;51.880;12.630;2023-02-27T01:48:27;2.63;;;0.13;;
74967;SDS011;63523;51.880;12.630;2023-02-27T01:51:02;1.85;;;0.20;;
74967;SDS011;63523;51.880;12.630;2023-02-27T01:53:31;2.72;;;0.20;;
74967;SDS011;63523;51.880;12.630;2023-02-27T01:56:00;2.85;;;0.20;;
74967;SDS011;63523;51.880;12.630;2023-02-27T01:58:30;3.28;;;0.13;;
74967;SDS011;63523;51.880;12.630;2023-02-27T02:00:56;3.05;;;0.20;;
74967;SDS011;63523;51.880;12.630;2023-02-27T02:03:23;2.33;;;0.20;;
74967;SDS011;63523;51.880;12.630;2023-02-27T02:05:55;2.42;;;0.20;;
74967;SDS011;63523;51.880;12.630;2023-02-27T02:08:22;2.47;;;0.22;;
74967;SDS011;63523;51.880;12.630;2023-02-27T02:10:50;2.20;;;0.20;;
74967;SDS011;63523;51.880;12.630;2023-02-27T02:13:18;2.73;;;0.20;;
74967;SDS011;63523;51.880;12.630;2023-02-27T02:15:47;2.08;;;0.20;;
74967;SDS011;63523;51.880;12.630;2023-02-27T02:18:25;3.13;;;0.20;;
74967;SDS011;63523;51.880;12.630;2023-02-27T02:21:16;3.28;;;0.20;;
74967;SDS011;63523;51.880;12.630;2023-02-27T02:42:55;3.65;;;0.20;;
74967;SDS011;63523;51.880;12.630;2023-02-27T02:45:40;2.40;;;0.17;;
74967;SDS011;63523;51.880;12.630;2023-02-27T02:51:04;1.40;;;0.10;;
74967;SDS011;63523;51.880;12.630;2023-02-27T02:53:55;3.87;;;0.20;;
74967;SDS011;63523;51.880;12.630;2023-02-27T02:56:34;1.70;;;0.10;;
74967;SDS011;63523;51.880;12.630;2023-02-27T03:01:55;3.38;;;0.20;;
74967;SDS011;63523;51.880;12.630;2023-02-27T03:07:19;2.03;;;0.10;;
74967;SDS011;63523;51.880;12.630;2023-02-27T03:09:53;2.45;;;0.20;;
74967;SDS011;63523;51.880;12.630;2023-02-27T03:12:33;3.10;;;0.20;;
74967;SDS011;63523;51.880;12.630;2023-02-27T03:15:05;2.30;;;0.10;;
74967;SDS011;63523;51.880;12.630;2023-02-27T03:20:14;2.83;;;0.20;;
74967;SDS011;63523;51.880;12.630;2023-02-27T03:22:48;1.77;;;0.10;;
74967;SDS011;63523;51.880;12.630;2023-02-27T03:25:17;1.90;;;0.10;;
74967;SDS011;63523;51.880;12.630;2023-02-27T03:27:50;1.27;;;0.10;;
74967;SDS011;63523;51.880;12.630;2023-02-27T03:32:59;3.80;;;0.10;;
74967;SDS011;63523;51.880;12.630;2023-02-27T03:38:29;2.38;;;0.10;;
74967;SDS011;63523;51.880;12.630;2023-02-27T03:43:50;3.42;;;0.20;;
74967;SDS011;63523;51.880;12.630;2023-02-27T03:46:20;1.87;;;0.20;;
74967;SDS011;63523;51.880;12.630;2023-02-27T03:48:47;2.53;;;0.20;;
74967;SDS011;63523;51.880;12.630;2023-02-27T03:51:14;3.30;;;0.20;;
74967;SDS011;63523;51.880;12.630;2023-02-27T03:54:05;2.73;;;0.23;;
74967;SDS011;63523;51.880;12.630;2023-02-27T03:56:39;4.20;;;0.35;;
74967;SDS011;63523;51.880;12.630;2023-02-27T03:59:08;4.90;;;0.20;;
74967;SDS011;63523;51.880;12.630;2023-02-27T04:01:34;2.88;;;0.30;;
74967;SDS011;63523;51.880;12.630;2023-02-27T04:04:01;3.57;;;0.20;;
74967;SDS011;63523;51.880;12.630;2023-02-27T04:06:32;2.15;;;0.10;;
74967;SDS011;63523;51.880;12.630;2023-02-27T04:18:09;2.22;;;0.10;;
74967;SDS011;63523;51.880;12.630;2023-02-27T04:24:03;3.90;;;0.20;;
74967;SDS011;63523;51.880;12.630;2023-02-27T04:26:43;2.65;;;0.20;;
74967;SDS011;63523;51.880;12.630;2023-02-27T04:29:18;2.95;;;0.40;;
74967;SDS011;63523;51.880;12.630;2023-02-27T04:32:05;3.53;;;0.50;;
74967;SDS011;63523;51.880;12.630;2023-02-27T04:34:35;3.38;;;0.35;;
74967;SDS011;63523;51.880;12.630;2023-02-27T04:37:09;3.45;;;0.22;;
74967;SDS011;63523;51.880;12.630;2023-02-27T04:39:45;4.55;;;0.40;;
74967;SDS011;63523;51.880;12.630;2023-02-27T04:42:16;2.50;;;0.40;;
74967;SDS011;63523;51.880;12.630;2023-02-27T04:44:48;4.03;;;0.40;;
74967;SDS011;63523;51.880;12.630;2023-02-27T04:47:16;3.28;;;0.40;;
74967;SDS011;63523;51.880;12.630;2023-02-27T04:49:45;4.78;;;0.50;;
74967;SDS011;63523;51.880;12.630;2023-02-27T04:52:35;2.88;;;0.30;;
74967;SDS011;63523;51.880;12.630;2023-02-27T04:55:24;3.35;;;0.35;;
74967;SDS011;63523;51.880;12.630;2023-02-27T05:00:19;14.33;;;2.50;;
74967;SDS011;63523;51.880;12.630;2023-02-27T05:02:52;6.18;;;0.93;;
74967;SDS011;63523;51.880;12.630;2023-02-27T05:05:26;4.05;;;0.40;;
74967;SDS011;63523;51.880;12.630;2023-02-27T05:07:56;3.75;;;0.40;;
74967;SDS011;63523;51.880;12.630;2023-02-27T05:10:36;3.17;;;0.30;;
74967;SDS011;63523;51.880;12.630;2023-02-27T05:13:25;2.97;;;0.30;;
74967;SDS011;63523;51.880;12.630;2023-02-27T05:16:01;2.78;;;0.20;;
74967;SDS011;63523;51.880;12.630;2023-02-27T05:18:32;3.13;;;0.20;;
74967;SDS011;63523;51.880;12.630;2023-02-27T05:23:38;4.05;;;0.30;;
74967;SDS011;63523;51.880;12.630;2023-02-27T05:28:50;3.42;;;0.28;;
74967;SDS011;63523;51.880;12.630;2023-02-27T05:31:25;3.40;;;0.30;;
74967;SDS011;63523;51.880;12.630;2023-02-27T05:34:04;4.45;;;0.45;;
74967;SDS011;63523;51.880;12.630;2023-02-27T05:36:42;2.28;;;0.20;;
74967;SDS011;63523;51.880;12.630;2023-02-27T05:39:12;2.95;;;0.30;;
74967;SDS011;63523;51.880;12.630;2023-02-27T05:41:43;3.10;;;0.35;;
74967;SDS011;63523;51.880;12.630;2023-02-27T05:44:39;4.60;;;0.50;;
74967;SDS011;63523;51.880;12.630;2023-02-27T05:47:09;3.00;;;0.40;;
74967;SDS011;63523;51.880;12.630;2023-02-27T05:49:41;3.60;;;0.70;;
74967;SDS011;63523;51.880;12.630;2023-02-27T05:52:10;5.47;;;0.80;;
74967;SDS011;63523;51.880;12.630;2023-02-27T05:54:58;2.97;;;0.40;;
74967;SDS011;63523;51.880;12.630;2023-02-27T05:57:36;4.47;;;0.60;;
74967;SDS011;63523;51.880;12.630;2023-02-27T06:02:38;9.80;;;3.35;;
74967;SDS011;63523;51.880;12.630;2023-02-27T06:05:04;4.32;;;1.23;;
74967;SDS011;63523;51.880;12.630;2023-02-27T06:07:30;3.22;;;0.40;;
74967;SDS011;63523;51.880;12.630;2023-02-27T06:09:56;3.25;;;0.45;;
74967;SDS011;63523;51.880;12.630;2023-02-27T06:12:22;3.65;;;0.30;;
74967;SDS011;63523;51.880;12.630;2023-02-27T06:14:48;5.97;;;0.90;;
74967;SDS011;63523;51.880;12.630;2023-02-27T06:17:13;5.37;;;0.97;;
74967;SDS011;63523;51.880;12.630;2023-02-27T06:19:39;5.97;;;1.30;;
74967;SDS011;63523;51.880;12.630;2023-02-27T06:22:04;7.57;;;1.10;;
74967;SDS011;63523;51.880;12.630;2023-02-27T06:24:30;6.40;;;1.13;;
74967;SDS011;63523;51.880;12.630;2023-02-27T06:26:55;6.05;;;0.70;;
74967;SDS011;63523;51.880;12.630;2023-02-27T06:29:21;5.47;;;1.00;;
74967;SDS011;63523;51.880;12.630;2023-02-27T06:31:46;4.90;;;0.53;;
74967;SDS011;63523;51.880;12.630;2023-02-27T06:34:12;3.97;;;0.40;;
74967;SDS011;63523;51.880;12.630;2023-02-27T06:36:37;4.00;;;0.45;;
74967;SDS011;63523;51.880;12.630;2023-02-27T06:39:03;4.20;;;0.70;;
74967;SDS011;63523;51.880;12.630;2023-02-27T06:41:29;3.88;;;0.50;;
74967;SDS011;63523;51.880;12.630;2023-02-27T06:43:54;5.37;;;0.90;;
74967;SDS011;63523;51.880;12.630;2023-02-27T06:46:20;2.77;;;0.40;;
74967;SDS011;63523;51.880;12.630;2023-02-27T06:48:46;4.68;;;0.52;;
74967;SDS011;63523;51.880;12.630;2023-02-27T06:51:11;3.77;;;0.67;;
74967;SDS011;63523;51.880;12.630;2023-02-27T06:53:37;4.47;;;0.90;;
74967;SDS011;63523;51.880;12.630;2023-02-27T06:56:02;4.77;;;0.90;;
74967;SDS011;63523;51.880;12.630;2023-02-27T06:58:28;5.68;;;0.98;;
74967;SDS011;63523;51.880;12.630;2023-02-27T07:00:54;4.63;;;0.80;;
74967;SDS011;63523;51.880;12.630;2023-02-27T07:03:19;4.90;;;0.70;;
74967;SDS011;63523;51.880;12.630;2023-02-27T07:05:45;5.38;;;0.70;;
74967;SDS011;63523;51.880;12.630;2023-02-27T07:08:10;4.87;;;0.70;;
74967;SDS011;63523;51.880;12.630;2023-02-27T07:10:36;5.17;;;0.80;;
74967;SDS011;63523;51.880;12.630;2023-02-27T07:13:03;6.03;;;1.00;;
74967;SDS011;63523;51.880;12.630;2023-02-27T07:15:28;6.50;;;1.10;;
74967;SDS011;63523;51.880;12.630;2023-02-27T07:17:54;4.20;;;0.95;;
74967;SDS011;63523;51.880;12.630;2023-02-27T07:20:19;7.47;;;1.40;;
74967;SDS011;63523;51.880;12.630;2023-02-27T07:22:45;6.87;;;1.10;;
74967;SDS011;63523;51.880;12.630;2023-02-27T07:25:10;5.93;;;1.17;;
74967;SDS011;63523;51.880;12.630;2023-02-27T07:27:36;5.93;;;1.23;;
74967;SDS011;63523;51.880;12.630;2023-02-27T07:30:02;5.80;;;1.38;;
74967;SDS011;63523;51.880;12.630;2023-02-27T07:32:28;6.70;;;1.38;;
74967;SDS011;63523;51.880;12.630;2023-02-27T07:34:53;7.47;;;1.38;;
74967;SDS011;63523;51.880;12.630;2023-02-27T07:37:19;6.10;;;1.10;;
74967;SDS011;63523;51.880;12.630;2023-02-27T07:39:44;5.13;;;1.07;;
74967;SDS011;63523;51.880;12.630;2023-02-27T07:42:10;5.25;;;1.25;;
74967;SDS011;63523;51.880;12.630;2023-02-27T07:44:35;4.97;;;1.10;;
74967;SDS011;63523;51.880;12.630;2023-02-27T07:47:01;4.43;;;0.80;;
74967;SDS011;63523;51.880;12.630;2023-02-27T07:49:27;8.18;;;1.45;;
74967;SDS011;63523;51.880;12.630;2023-02-27T07:51:53;5.50;;;0.90;;
74967;SDS011;63523;51.880;12.630;2023-02-27T07:54:18;8.10;;;1.23;;
74967;SDS011;63523;51.880;12.630;2023-02-27T07:56:44;5.97;;;1.42;;
74967;SDS011;63523;51.880;12.630;2023-02-27T07:59:09;5.40;;;1.48;;
74967;SDS011;63523;51.880;12.630;2023-02-27T08:01:35;6.30;;;1.60;;
74967;SDS011;63523;51.880;12.630;2023-02-27T08:04:00;6.47;;;1.42;;
74967;SDS011;63523;51.880;12.630;2023-02-27T08:06:26;6.80;;;1.33;;
74967;SDS011;63523;51.880;12.630;2023-02-27T08:08:51;6.93;;;1.10;;
74967;SDS011;63523;51.880;12.630;2023-02-27T08:11:17;6.43;;;1.30;;
74967;SDS011;63523;51.880;12.630;2023-02-27T08:13:43;5.65;;;0.75;;
74967;SDS011;63523;51.880;12.630;2023-02-27T08:16:12;5.40;;;0.98;;
74967;SDS011;63523;51.880;12.630;2023-02-27T08:18:37;4.30;;;0.70;;
74967;SDS011;63523;51.880;12.630;2023-02-27T08:21:03;4.28;;;0.88;;
74967;SDS011;63523;51.880;12.630;2023-02-27T08:23:29;6.97;;;0.70;;
74967;SDS011;63523;51.880;12.630;2023-02-27T08:25:56;5.35;;;1.17;;
74967;SDS011;63523;51.880;12.630;2023-02-27T08:28:22;5.55;;;1.23;;
74967;SDS011;63523;51.880;12.630;2023-02-27T08:30:48;5.28;;;0.93;;
74967;SDS011;63523;51.880;12.630;2023-02-27T08:33:13;9.43;;;1.60;;
74967;SDS011;63523;51.880;12.630;2023-02-27T08:35:39;5.17;;;1.10;;
74967;SDS011;63523;51.880;12.630;2023-02-27T08:38:05;4.72;;;1.42;;
74967;SDS011;63523;51.880;12.630;2023-02-27T08:40:30;5.53;;;1.00;;
74967;SDS011;63523;51.880;12.630;2023-02-27T08:42:56;6.27;;;1.10;;
74967;SDS011;63523;51.880;12.630;2023-02-27T08:45:21;3.97;;;0.80;;
74967;SDS011;63523;51.880;12.630;2023-02-27T08:47:47;5.20;;;0.90;;
74967;SDS011;63523;51.880;12.630;2023-02-27T08:50:12;6.47;;;0.77;;
74967;SDS011;63523;51.880;12.630;2023-02-27T08:52:38;6.38;;;1.05;;
74967;SDS011;63523;51.880;12.630;2023-02-27T08:55:03;7.73;;;1.30;;
74967;SDS011;63523;51.880;12.630;2023-02-27T08:57:29;4.43;;;0.75;;
74967;SDS011;63523;51.880;12.630;2023-02-27T08:59:55;4.93;;;0.90;;
74967;SDS011;63523;51.880;12.630;2023-02-27T09:02:20;4.07;;;1.00;;
74967;SDS011;63523;51.880;12.630;2023-02-27T09:04:51;4.37;;;0.87;;
74967;SDS011;63523;51.880;12.630;2023-02-27T09:07:17;4.05;;;0.82;;
74967;SDS011;63523;51.880;12.630;2023-02-27T09:09:43;5.90;;;1.40;;
74967;SDS011;63523;51.880;12.630;2023-02-27T09:12:09;5.60;;;1.10;;
74967;SDS011;63523;51.880;12.630;2023-02-27T09:14:35;5.03;;;0.90;;
74967;SDS011;63523;51.880;12.630;2023-02-27T09:17:00;6.47;;;0.90;;
74967;SDS011;63523;51.880;12.630;2023-02-27T09:19:26;6.40;;;0.83;;
74967;SDS011;63523;51.880;12.630;2023-02-27T09:21:52;6.93;;;2.28;;
74967;SDS011;63523;51.880;12.630;2023-02-27T09:24:17;4.90;;;1.10;;
74967;SDS011;63523;51.880;12.630;2023-02-27T09:26:43;7.00;;;1.10;;
74967;SDS011;63523;51.880;12.630;2023-02-27T09:29:08;6.60;;;0.90;;
74967;SDS011;63523;51.880;12.630;2023-02-27T09:31:34;4.93;;;0.90;;
74967;SDS011;63523;51.880;12.630;2023-02-27T09:33:59;4.53;;;0.93;;
74967;SDS011;63523;51.880;12.630;2023-02-27T09:36:26;4.65;;;1.00;;
74967;SDS011;63523;51.880;12.630;2023-02-27T09:38:52;8.40;;;0.90;;
74967;SDS011;63523;51.880;12.630;2023-02-27T09:44:24;4.18;;;0.70;;
74967;SDS011;63523;51.880;12.630;2023-02-27T09:46:55;5.60;;;0.75;;
74967;SDS011;63523;51.880;12.630;2023-02-27T09:49:21;3.60;;;0.60;;
74967;SDS011;63523;51.880;12.630;2023-02-27T09:51:50;7.13;;;0.80;;
74967;SDS011;63523;51.880;12.630;2023-02-27T09:54:17;5.85;;;1.02;;
74967;SDS011;63523;51.880;12.630;2023-02-27T09:56:47;7.00;;;0.90;;
74967;SDS011;63523;51.880;12.630;2023-02-27T10:04:52;6.07;;;0.70;;
74967;SDS011;63523;51.880;12.630;2023-02-27T10:15:46;3.77;;;0.40;;
74967;SDS011;63523;51.880;12.630;2023-02-27T10:21:29;6.47;;;0.60;;
74967;SDS011;63523;51.880;12.630;2023-02-27T10:26:04;10.82;;;0.90;;
74967;SDS011;63523;51.880;12.630;2023-02-27T10:28:32;4.20;;;0.75;;
74967;SDS011;63523;51.880;12.630;2023-02-27T10:30:58;4.43;;;0.70;;
74967;SDS011;63523;51.880;12.630;2023-02-27T10:35:56;7.07;;;0.77;;
74967;SDS011;63523;51.880;12.630;2023-02-27T10:40:56;4.25;;;0.50;;
74967;SDS011;63523;51.880;12.630;2023-02-27T10:43:23;3.30;;;0.47;;
74967;SDS011;63523;51.880;12.630;2023-02-27T10:45:49;6.72;;;0.52;;
74967;SDS011;63523;51.880;12.630;2023-02-27T10:48:14;3.57;;;0.60;;
74967;SDS011;63523;51.880;12.630;2023-02-27T10:50:41;6.18;;;0.47;;
74967;SDS011;63523;51.880;12.630;2023-02-27T10:53:26;4.60;;;0.50;;
74967;SDS011;63523;51.880;12.630;2023-02-27T10:56:05;4.45;;;0.65;;
74967;SDS011;63523;51.880;12.630;2023-02-27T10:58:35;6.50;;;0.90;;
74967;SDS011;63523;51.880;12.630;2023-02-27T11:01:03;6.93;;;0.80;;
74967;SDS011;63523;51.880;12.630;2023-02-27T11:03:31;5.78;;;0.65;;
74967;SDS011;63523;51.880;12.630;2023-02-27T11:06:11;7.47;;;0.88;;
74967;SDS011;63523;51.880;12.630;2023-02-27T11:08:44;8.98;;;0.90;;
74967;SDS011;63523;51.880;12.630;2023-02-27T11:11:37;4.67;;;0.33;;
74967;SDS011;63523;51.880;12.630;2023-02-27T11:14:37;3.85;;;0.30;;
74967;SDS011;63523;51.880;12.630;2023-02-27T11:16:57;4.95;;;0.30;;
74967;SDS011;63523;51.880;12.630;2023-02-27T11:19:29;6.83;;;0.70;;
74967;SDS011;63523;51.880;12.630;2023-02-27T11:22:14;6.32;;;0.20;;
74967;SDS011;63523;51.880;12.630;2023-02-27T11:24:42;2.10;;;0.20;;
74967;SDS011;63523;51.880;12.630;2023-02-27T11:29:55;2.30;;;0.40;;
74967;SDS011;63523;51.880;12.630;2023-02-27T11:32:22;2.00;;;0.10;;
74967;SDS011;63523;51.880;12.630;2023-02-27T11:34:50;3.13;;;0.20;;
74967;SDS011;63523;51.880;12.630;2023-02-27T11:37:26;2.63;;;0.10;;
74967;SDS011;63523;51.880;12.630;2023-02-27T11:42:35;4.35;;;0.30;;
74967;SDS011;63523;51.880;12.630;2023-02-27T11:45:21;2.43;;;0.20;;
74967;SDS011;63523;51.880;12.630;2023-02-27T11:47:53;6.55;;;0.80;;
74967;SDS011;63523;51.880;12.630;2023-02-27T11:56:02;2.38;;;0.13;;
74967;SDS011;63523;51.880;12.630;2023-02-27T11:58:34;2.90;;;0.43;;
74967;SDS011;63523;51.880;12.630;2023-02-27T12:01:08;1.60;;;0.17;;
74967;SDS011;63523;51.880;12.630;2023-02-27T12:03:59;1.42;;;0.10;;
74967;SDS011;63523;51.880;12.630;2023-02-27T12:06:56;1.85;;;0.20;;
74967;SDS011;63523;51.880;12.630;2023-02-27T12:12:16;1.07;;;0.10;;
74967;SDS011;63523;51.880;12.630;2023-02-27T12:18:06;0.80;;;0.00;;
74967;SDS011;63523;51.880;12.630;2023-02-27T12:23:45;1.63;;;0.20;;
74967;SDS011;63523;51.880;12.630;2023-02-27T12:26:27;1.40;;;0.10;;
74967;SDS011;63523;51.880;12.630;2023-02-27T12:29:16;1.02;;;0.10;;
74967;SDS011;63523;51.880;12.630;2023-02-27T12:34:26;5.43;;;0.80;;
74967;SDS011;63523;51.880;12.630;2023-02-27T12:37:02;3.10;;;0.10;;
74967;SDS011;63523;51.880;12.630;2023-02-27T12:39:34;2.58;;;0.15;;
74967;SDS011;63523;51.880;12.630;2023-02-27T12:44:33;1.47;;;0.10;;
74967;SDS011;63523;51.880;12.630;2023-02-27T12:47:32;1.65;;;0.10;;
74967;SDS011;63523;51.880;12.630;2023-02-27T12:55:52;2.60;;;0.17;;
74967;SDS011;63523;51.880;12.630;2023-02-27T13:05:51;3.22;;;0.45;;
74967;SDS011;63523;51.880;12.630;2023-02-27T13:17:09;2.03;;;0.10;;
74967;SDS011;63523;51.880;12.630;2023-02-27T13:22:31;2.25;;;0.20;;
74967;SDS011;63523;51.880;12.630;2023-02-27T13:25:12;2.17;;;0.10;;
74967;SDS011;63523;51.880;12.630;2023-02-27T13:27:42;1.95;;;0.10;;
74967;SDS011;63523;51.880;12.630;2023-02-27T13:30:12;1.85;;;0.20;;
74967;SDS011;63523;51.880;12.630;2023-02-27T13:35:25;4.97;;;0.20;;
74967;SDS011;63523;51.880;12.630;2023-02-27T13:40:56;1.05;;;0.10;;
74967;SDS011;63523;51.880;12.630;2023-02-27T13:43:42;1.65;;;0.10;;
74967;SDS011;63523;51.880;12.630;2023-02-27T13:46:26;1.33;;;0.20;;
74967;SDS011;63523;51.880;12.630;2023-02-27T13:59:20;1.63;;;0.10;;
74967;SDS011;63523;51.880;12.630;2023-02-27T14:01:58;0.90;;;0.10;;
74967;SDS011;63523;51.880;12.630;2023-02-27T14:04:31;2.33;;;0.10;;
74967;SDS011;63523;51.880;12.630;2023-02-27T14:07:03;1.15;;;0.10;;
74967;SDS011;63523;51.880;12.630;2023-02-27T14:09:33;1.13;;;0.10;;
74967;SDS011;63523;51.880;12.630;2023-02-27T14:12:01;1.40;;;0.10;;
74967;SDS011;63523;51.880;12.630;2023-02-27T14:14:40;1.52;;;0.10;;
74967;SDS011;63523;51.880;12.630;2023-02-27T14:17:12;2.55;;;0.10;;
74967;SDS011;63523;51.880;12.630;2023-02-27T14:19:58;1.77;;;0.30;;
74967;SDS011;63523;51.880;12.630;2023-02-27T14:22:29;1.60;;;0.10;;
74967;SDS011;63523;51.880;12.630;2023-02-27T14:25:16;1.67;;;0.10;;
74967;SDS011;63523;51.880;12.630;2023-02-27T14:28:09;2.35;;;0.10;;
74967;SDS011;63523;51.880;12.630;2023-02-27T14:33:48;1.47;;;0.00;;
74967;SDS011;63523;51.880;12.630;2023-02-27T14:38:45;1.83;;;0.20;;
74967;SDS011;63523;51.880;12.630;2023-02-27T14:43:47;1.08;;;0.10;;
74967;SDS011;63523;51.880;12.630;2023-02-27T14:46:38;3.05;;;0.10;;
74967;SDS011;63523;51.880;12.630;2023-02-27T14:49:05;1.80;;;0.10;;
74967;SDS011;63523;51.880;12.630;2023-02-27T14:51:41;2.33;;;0.10;;
74967;SDS011;63523;51.880;12.630;2023-02-27T14:54:12;3.30;;;0.10;;
74967;SDS011;63523;51.880;12.630;2023-02-27T14:56:40;2.95;;;0.28;;
74967;SDS011;63523;51.880;12.630;2023-02-27T15:01:56;1.52;;;0.10;;
74967;SDS011;63523;51.880;12.630;2023-02-27T15:04:26;3.20;;;0.20;;
74967;SDS011;63523;51.880;12.630;2023-02-27T15:06:54;1.80;;;0.15;;
74967;SDS011;63523;51.880;12.630;2023-02-27T15:09:37;2.25;;;0.15;;
74967;SDS011;63523;51.880;12.630;2023-02-27T15:12:07;3.25;;;0.15;;
74967;SDS011;63523;51.880;12.630;2023-02-27T15:14:34;1.63;;;0.20;;
74967;SDS011;63523;51.880;12.630;2023-02-27T15:17:03;5.80;;;0.40;;
74967;SDS011;63523;51.880;12.630;2023-02-27T15:19:44;2.63;;;0.20;;
74967;SDS011;63523;51.880;12.630;2023-02-27T15:22:16;4.07;;;0.10;;
74967;SDS011;63523;51.880;12.630;2023-02-27T15:24:45;1.67;;;0.10;;
74967;SDS011;63523;51.880;12.630;2023-02-27T15:27:12;2.88;;;0.20;;
74967;SDS011;63523;51.880;12.630;2023-02-27T15:29:42;0.87;;;0.10;;
74967;SDS011;63523;51.880;12.630;2023-02-27T15:32:29;1.20;;;0.10;;
74967;SDS011;63523;51.880;12.630;2023-02-27T15:34:57;1.40;;;0.10;;
74967;SDS011;63523;51.880;12.630;2023-02-27T15:37:26;1.95;;;0.10;;
74967;SDS011;63523;51.880;12.630;2023-02-27T15:39:57;1.35;;;0.10;;
74967;SDS011;63523;51.880;12.630;2023-02-27T15:42:28;0.97;;;0.00;;
74967;SDS011;63523;51.880;12.630;2023-02-27T15:44:56;2.25;;;0.10;;
74967;SDS011;63523;51.880;12.630;2023-02-27T15:47:26;0.95;;;0.10;;
74967;SDS011;63523;51.880;12.630;2023-02-27T15:49:58;1.30;;;0.05;;
74967;SDS011;63523;51.880;12.630;2023-02-27T15:52:39;0.67;;;0.00;;
74967;SDS011;63523;51.880;12.630;2023-02-27T15:55:11;1.45;;;0.10;;
74967;SDS011;63523;51.880;12.630;2023-02-27T15:57:38;1.67;;;0.10;;
74967;SDS011;63523;51.880;12.630;2023-02-27T16:00:05;1.57;;;0.10;;
74967;SDS011;63523;51.880;12.630;2023-02-27T16:02:45;1.80;;;0.00;;
74967;SDS011;63523;51.880;12.630;2023-02-27T16:05:21;3.83;;;0.10;;
74967;SDS011;63523;51.880;12.630;2023-02-27T16:07:50;2.45;;;0.10;;
74967;SDS011;63523;51.880;12.630;2023-02-27T16:10:24;3.42;;;0.10;;
74967;SDS011;63523;51.880;12.630;2023-02-27T16:12:52;1.60;;;0.23;;
74967;SDS011;63523;51.880;12.630;2023-02-27T16:17:57;2.80;;;0.20;;
74967;SDS011;63523;51.880;12.630;2023-02-27T16:20:36;3.50;;;0.30;;
74967;SDS011;63523;51.880;12.630;2023-02-27T16:23:12;8.57;;;0.70;;
74967;SDS011;63523;51.880;12.630;2023-02-27T16:25:40;3.30;;;0.40;;
74967;SDS011;63523;51.880;12.630;2023-02-27T16:28:12;4.80;;;0.40;;
74967;SDS011;63523;51.880;12.630;2023-02-27T16:30:38;3.25;;;0.28;;
74967;SDS011;63523;51.880;12.630;2023-02-27T16:33:09;3.45;;;0.47;;
74967;SDS011;63523;51.880;12.630;2023-02-27T16:35:41;4.20;;;0.10;;
74967;SDS011;63523;51.880;12.630;2023-02-27T16:38:07;4.73;;;0.23;;
74967;SDS011;63523;51.880;12.630;2023-02-27T16:40:32;3.23;;;0.17;;
74967;SDS011;63523;51.880;12.630;2023-02-27T16:42:58;2.63;;;0.20;;
74967;SDS011;63523;51.880;12.630;2023-02-27T16:45:26;2.75;;;0.20;;
74967;SDS011;63523;51.880;12.630;2023-02-27T16:47:53;3.28;;;0.22;;
74967;SDS011;63523;51.880;12.630;2023-02-27T16:52:56;5.18;;;0.88;;
74967;SDS011;63523;51.880;12.630;2023-02-27T16:55:22;5.87;;;0.87;;
74967;SDS011;63523;51.880;12.630;2023-02-27T16:57:48;3.55;;;0.38;;
74967;SDS011;63523;51.880;12.630;2023-02-27T17:00:16;4.33;;;0.63;;
74967;SDS011;63523;51.880;12.630;2023-02-27T17:02:42;5.25;;;0.50;;
74967;SDS011;63523;51.880;12.630;2023-02-27T17:05:08;6.00;;;0.80;;
74967;SDS011;63523;51.880;12.630;2023-02-27T17:07:34;4.15;;;0.60;;
74967;SDS011;63523;51.880;12.630;2023-02-27T17:10:00;8.48;;;3.20;;
74967;SDS011;63523;51.880;12.630;2023-02-27T17:12:26;4.67;;;0.60;;
74967;SDS011;63523;51.880;12.630;2023-02-27T17:14:51;5.97;;;0.52;;
74967;SDS011;63523;51.880;12.630;2023-02-27T17:17:17;2.60;;;0.30;;
74967;SDS011;63523;51.880;12.630;2023-02-27T17:19:43;4.35;;;0.43;;
74967;SDS011;63523;51.880;12.630;2023-02-27T17:22:09;2.67;;;0.30;;
74967;SDS011;63523;51.880;12.630;2023-02-27T17:24:35;3.25;;;0.40;;
74967;SDS011;63523;51.880;12.630;2023-02-27T17:27:01;6.63;;;0.75;;
74967;SDS011;63523;51.880;12.630;2023-02-27T17:29:27;4.37;;;1.20;;
74967;SDS011;63523;51.880;12.630;2023-02-27T17:31:52;4.63;;;0.73;;
74967;SDS011;63523;51.880;12.630;2023-02-27T17:34:18;6.37;;;0.97;;
74967;SDS011;63523;51.880;12.630;2023-02-27T17:36:43;5.28;;;1.33;;
74967;SDS011;63523;51.880;12.630;2023-02-27T17:39:12;8.27;;;2.07;;
74967;SDS011;63523;51.880;12.630;2023-02-27T17:41:39;7.75;;;2.20;;